sensor_id;sensor_type;location;lat;lon;timestamp;temperature;humidity
28175;SHT30;59417;44.788;10.334;2023-09-18T00:01:50;24.15;74.76
28175;SHT30;59417;44.788;10.334;2023-09-18T00:04:16;24.33;74.15
28175;SHT30;59417;44.788;10.334;2023-09-18T00:06:42;24.35;74.06
28175;SHT30;59417;44.788;10.334;2023-09-18T00:09:08;24.41;73.89
28175;SHT30;59417;44.788;10.334;2023-09-18T00:11:39;24.29;74.09
28175;SHT30;59417;44.788;10.334;2023-09-18T00:14:04;24.22;73.99
28175;SHT30;59417;44.788;10.334;2023-09-18T00:16:30;24.16;74.22
28175;SHT30;59417;44.788;10.334;2023-09-18T00:18:57;24.12;74.28
28175;SHT30;59417;44.788;10.334;2023-09-18T00:21:22;24.12;73.96
28175;SHT30;59417;44.788;10.334;2023-09-18T00:23:51;24.18;73.90
28175;SHT30;59417;44.788;10.334;2023-09-18T00:26:17;24.04;74.30
28175;SHT30;59417;44.788;10.334;2023-09-18T00:28:47;23.97;74.82
28175;SHT30;59417;44.788;10.334;2023-09-18T00:31:13;23.88;75.15
28175;SHT30;59417;44.788;10.334;2023-09-18T00:33:38;23.85;75.15
28175;SHT30;59417;44.788;10.334;2023-09-18T00:36:05;23.90;74.84
28175;SHT30;59417;44.788;10.334;2023-09-18T00:38:31;23.94;74.80
28175;SHT30;59417;44.788;10.334;2023-09-18T00:40:56;23.94;75.04
28175;SHT30;59417;44.788;10.334;2023-09-18T00:43:23;24.01;75.07
28175;SHT30;59417;44.788;10.334;2023-09-18T00:45:49;23.88;75.21
28175;SHT30;59417;44.788;10.334;2023-09-18T00:48:15;23.85;75.26
28175;SHT30;59417;44.788;10.334;2023-09-18T00:50:43;23.94;74.93
28175;SHT30;59417;44.788;10.334;2023-09-18T00:53:10;24.00;74.65
28175;SHT30;59417;44.788;10.334;2023-09-18T00:55:37;23.95;74.89
28175;SHT30;59417;44.788;10.334;2023-09-18T00:58:04;23.88;74.92
28175;SHT30;59417;44.788;10.334;2023-09-18T01:00:31;23.87;75.14
28175;SHT30;59417;44.788;10.334;2023-09-18T01:02:57;23.84;75.35
28175;SHT30;59417;44.788;10.334;2023-09-18T01:05:23;23.74;75.68
28175;SHT30;59417;44.788;10.334;2023-09-18T01:07:49;23.70;75.71
28175;SHT30;59417;44.788;10.334;2023-09-18T01:10:15;23.85;74.62
28175;SHT30;59417;44.788;10.334;2023-09-18T01:12:52;23.91;74.26
28175;SHT30;59417;44.788;10.334;2023-09-18T01:15:39;23.97;73.86
28175;SHT30;59417;44.788;10.334;2023-09-18T01:18:09;23.84;74.12
28175;SHT30;59417;44.788;10.334;2023-09-18T01:20:35;23.92;73.78
28175;SHT30;59417;44.788;10.334;2023-09-18T01:23:00;23.78;74.11
28175;SHT30;59417;44.788;10.334;2023-09-18T01:25:26;23.82;73.72
28175;SHT30;59417;44.788;10.334;2023-09-18T01:27:52;23.78;73.98
28175;SHT30;59417;44.788;10.334;2023-09-18T01:30:18;23.73;73.87
28175;SHT30;59417;44.788;10.334;2023-09-18T01:32:44;23.75;74.17
28175;SHT30;59417;44.788;10.334;2023-09-18T01:35:12;23.71;74.38
28175;SHT30;59417;44.788;10.334;2023-09-18T01:37:39;23.68;74.61
28175;SHT30;59417;44.788;10.334;2023-09-18T01:40:06;23.65;74.62
28175;SHT30;59417;44.788;10.334;2023-09-18T01:42:33;23.65;74.68
28175;SHT30;59417;44.788;10.334;2023-09-18T01:45:00;23.58;74.84
28175;SHT30;59417;44.788;10.334;2023-09-18T01:47:26;23.70;74.66
28175;SHT30;59417;44.788;10.334;2023-09-18T01:49:55;23.77;74.44
28175;SHT30;59417;44.788;10.334;2023-09-18T01:52:21;23.78;74.49
28175;SHT30;59417;44.788;10.334;2023-09-18T01:54:47;23.74;74.62
28175;SHT30;59417;44.788;10.334;2023-09-18T01:57:13;23.57;75.17
28175;SHT30;59417;44.788;10.334;2023-09-18T01:59:39;23.50;75.37
28175;SHT30;59417;44.788;10.334;2023-09-18T02:02:05;23.54;75.16
28175;SHT30;59417;44.788;10.334;2023-09-18T02:04:33;23.55;75.15
28175;SHT30;59417;44.788;10.334;2023-09-18T02:06:59;23.61;74.76
28175;SHT30;59417;44.788;10.334;2023-09-18T02:09:24;23.57;74.85
28175;SHT30;59417;44.788;10.334;2023-09-18T02:11:50;23.57;75.03
28175;SHT30;59417;44.788;10.334;2023-09-18T02:14:15;23.60;74.87
28175;SHT30;59417;44.788;10.334;2023-09-18T02:16:42;23.67;74.66
28175;SHT30;59417;44.788;10.334;2023-09-18T02:19:13;23.61;74.69
28175;SHT30;59417;44.788;10.334;2023-09-18T02:21:42;23.67;74.70
28175;SHT30;59417;44.788;10.334;2023-09-18T02:24:09;23.64;74.75
28175;SHT30;59417;44.788;10.334;2023-09-18T02:26:35;23.63;74.86
28175;SHT30;59417;44.788;10.334;2023-09-18T02:29:08;23.57;75.01
28175;SHT30;59417;44.788;10.334;2023-09-18T02:31:39;23.63;75.17
28175;SHT30;59417;44.788;10.334;2023-09-18T02:34:05;23.64;74.98
28175;SHT30;59417;44.788;10.334;2023-09-18T02:36:33;23.68;74.82
28175;SHT30;59417;44.788;10.334;2023-09-18T02:38:58;23.51;75.41
28175;SHT30;59417;44.788;10.334;2023-09-18T02:41:24;23.36;76.04
28175;SHT30;59417;44.788;10.334;2023-09-18T02:43:50;23.31;76.30
28175;SHT30;59417;44.788;10.334;2023-09-18T02:46:16;23.31;76.22
28175;SHT30;59417;44.788;10.334;2023-09-18T02:48:41;23.34;76.10
28175;SHT30;59417;44.788;10.334;2023-09-18T02:51:08;23.34;75.98
28175;SHT30;59417;44.788;10.334;2023-09-18T02:53:33;23.57;75.24
28175;SHT30;59417;44.788;10.334;2023-09-18T02:56:00;23.58;75.35
28175;SHT30;59417;44.788;10.334;2023-09-18T02:58:26;23.49;75.63
28175;SHT30;59417;44.788;10.334;2023-09-18T03:00:55;23.24;76.31
28175;SHT30;59417;44.788;10.334;2023-09-18T03:03:21;23.09;76.95
28175;SHT30;59417;44.788;10.334;2023-09-18T03:05:47;23.02;77.22
28175;SHT30;59417;44.788;10.334;2023-09-18T03:08:14;23.24;76.53
28175;SHT30;59417;44.788;10.334;2023-09-18T03:10:41;23.47;76.17
28175;SHT30;59417;44.788;10.334;2023-09-18T03:13:10;23.37;76.44
28175;SHT30;59417;44.788;10.334;2023-09-18T03:15:37;23.26;76.73
28175;SHT30;59417;44.788;10.334;2023-09-18T03:18:03;23.23;76.47
28175;SHT30;59417;44.788;10.334;2023-09-18T03:20:30;23.16;76.55
28175;SHT30;59417;44.788;10.334;2023-09-18T03:23:01;23.30;76.31
28175;SHT30;59417;44.788;10.334;2023-09-18T03:25:27;23.36;76.06
28175;SHT30;59417;44.788;10.334;2023-09-18T03:27:56;23.40;75.95
28175;SHT30;59417;44.788;10.334;2023-09-18T03:30:26;23.26;76.69
28175;SHT30;59417;44.788;10.334;2023-09-18T03:32:52;23.06;77.43
28175;SHT30;59417;44.788;10.334;2023-09-18T03:35:19;22.96;77.70
28175;SHT30;59417;44.788;10.334;2023-09-18T03:37:47;22.99;77.45
28175;SHT30;59417;44.788;10.334;2023-09-18T03:40:14;23.06;77.18
28175;SHT30;59417;44.788;10.334;2023-09-18T03:42:40;23.22;76.20
28175;SHT30;59417;44.788;10.334;2023-09-18T03:45:06;23.19;76.26
28175;SHT30;59417;44.788;10.334;2023-09-18T03:47:38;23.12;76.18
28175;SHT30;59417;44.788;10.334;2023-09-18T03:50:07;23.19;75.64
28175;SHT30;59417;44.788;10.334;2023-09-18T03:52:33;23.13;75.80
28175;SHT30;59417;44.788;10.334;2023-09-18T03:54:59;23.09;75.93
28175;SHT30;59417;44.788;10.334;2023-09-18T03:57:25;23.07;75.83
28175;SHT30;59417;44.788;10.334;2023-09-18T03:59:51;23.12;75.52
28175;SHT30;59417;44.788;10.334;2023-09-18T04:02:17;23.03;75.85
28175;SHT30;59417;44.788;10.334;2023-09-18T04:04:42;22.99;75.97
28175;SHT30;59417;44.788;10.334;2023-09-18T04:07:09;23.02;75.81
28175;SHT30;59417;44.788;10.334;2023-09-18T04:09:34;23.03;75.92
28175;SHT30;59417;44.788;10.334;2023-09-18T04:12:04;22.99;76.08
28175;SHT30;59417;44.788;10.334;2023-09-18T04:14:33;22.93;76.51
28175;SHT30;59417;44.788;10.334;2023-09-18T04:16:59;22.92;76.33
28175;SHT30;59417;44.788;10.334;2023-09-18T04:19:26;23.02;75.84
28175;SHT30;59417;44.788;10.334;2023-09-18T04:21:52;22.98;76.14
28175;SHT30;59417;44.788;10.334;2023-09-18T04:24:18;22.95;75.92
28175;SHT30;59417;44.788;10.334;2023-09-18T04:26:44;23.07;75.59
28175;SHT30;59417;44.788;10.334;2023-09-18T04:29:09;22.95;76.15
28175;SHT30;59417;44.788;10.334;2023-09-18T04:31:35;22.95;75.80
28175;SHT30;59417;44.788;10.334;2023-09-18T04:34:01;22.98;75.76
28175;SHT30;59417;44.788;10.334;2023-09-18T04:36:28;22.99;75.73
28175;SHT30;59417;44.788;10.334;2023-09-18T04:38:54;22.96;76.18
28175;SHT30;59417;44.788;10.334;2023-09-18T04:41:20;23.00;75.82
28175;SHT30;59417;44.788;10.334;2023-09-18T04:43:46;22.89;76.21
28175;SHT30;59417;44.788;10.334;2023-09-18T04:46:11;22.89;76.65
28175;SHT30;59417;44.788;10.334;2023-09-18T04:48:38;22.93;76.29
28175;SHT30;59417;44.788;10.334;2023-09-18T04:51:05;23.12;75.49
28175;SHT30;59417;44.788;10.334;2023-09-18T04:53:32;23.07;75.67
28175;SHT30;59417;44.788;10.334;2023-09-18T04:55:57;23.07;75.55
28175;SHT30;59417;44.788;10.334;2023-09-18T04:58:23;23.13;75.06
28175;SHT30;59417;44.788;10.334;2023-09-18T05:00:56;23.15;75.20
28175;SHT30;59417;44.788;10.334;2023-09-18T05:03:22;23.13;75.35
28175;SHT30;59417;44.788;10.334;2023-09-18T05:05:48;23.12;75.50
28175;SHT30;59417;44.788;10.334;2023-09-18T05:08:14;23.15;75.23
28175;SHT30;59417;44.788;10.334;2023-09-18T05:10:40;23.19;74.98
28175;SHT30;59417;44.788;10.334;2023-09-18T05:13:05;23.13;75.29
28175;SHT30;59417;44.788;10.334;2023-09-18T05:15:32;23.22;75.00
28175;SHT30;59417;44.788;10.334;2023-09-18T05:17:59;23.16;75.30
28175;SHT30;59417;44.788;10.334;2023-09-18T05:20:27;23.12;75.52
28175;SHT30;59417;44.788;10.334;2023-09-18T05:22:54;23.07;75.73
28175;SHT30;59417;44.788;10.334;2023-09-18T05:25:21;23.00;76.08
28175;SHT30;59417;44.788;10.334;2023-09-18T05:27:47;22.95;76.42
28175;SHT30;59417;44.788;10.334;2023-09-18T05:30:15;22.99;76.55
28175;SHT30;59417;44.788;10.334;2023-09-18T05:32:42;22.99;76.38
28175;SHT30;59417;44.788;10.334;2023-09-18T05:35:09;22.93;76.66
28175;SHT30;59417;44.788;10.334;2023-09-18T05:37:39;23.06;75.99
28175;SHT30;59417;44.788;10.334;2023-09-18T05:40:06;23.20;75.12
28175;SHT30;59417;44.788;10.334;2023-09-18T05:42:39;23.24;75.16
28175;SHT30;59417;44.788;10.334;2023-09-18T05:45:05;23.27;75.50
28175;SHT30;59417;44.788;10.334;2023-09-18T05:47:32;23.30;75.63
28175;SHT30;59417;44.788;10.334;2023-09-18T05:49:58;23.34;75.61
28175;SHT30;59417;44.788;10.334;2023-09-18T05:52:24;23.36;75.57
28175;SHT30;59417;44.788;10.334;2023-09-18T05:54:51;23.47;75.38
28175;SHT30;59417;44.788;10.334;2023-09-18T05:57:17;23.63;74.33
28175;SHT30;59417;44.788;10.334;2023-09-18T05:59:43;23.63;74.09
28175;SHT30;59417;44.788;10.334;2023-09-18T06:02:11;23.47;75.03
28175;SHT30;59417;44.788;10.334;2023-09-18T06:04:36;23.39;75.57
28175;SHT30;59417;44.788;10.334;2023-09-18T06:07:05;23.39;75.62
28175;SHT30;59417;44.788;10.334;2023-09-18T06:09:31;23.61;74.96
28175;SHT30;59417;44.788;10.334;2023-09-18T06:11:56;23.46;75.48
28175;SHT30;59417;44.788;10.334;2023-09-18T06:14:22;23.44;75.88
28175;SHT30;59417;44.788;10.334;2023-09-18T06:16:48;23.46;76.04
28175;SHT30;59417;44.788;10.334;2023-09-18T06:19:15;23.55;75.64
28175;SHT30;59417;44.788;10.334;2023-09-18T06:21:43;23.80;74.99
28175;SHT30;59417;44.788;10.334;2023-09-18T06:24:09;23.63;75.06
28175;SHT30;59417;44.788;10.334;2023-09-18T06:26:35;23.46;75.63
28175;SHT30;59417;44.788;10.334;2023-09-18T06:29:01;23.31;76.15
28175;SHT30;59417;44.788;10.334;2023-09-18T06:31:28;23.30;76.35
28175;SHT30;59417;44.788;10.334;2023-09-18T06:33:54;23.31;76.30
28175;SHT30;59417;44.788;10.334;2023-09-18T06:36:19;23.37;76.32
28175;SHT30;59417;44.788;10.334;2023-09-18T06:38:46;23.34;76.17
28175;SHT30;59417;44.788;10.334;2023-09-18T06:41:12;23.43;76.08
28175;SHT30;59417;44.788;10.334;2023-09-18T06:43:37;23.44;75.86
28175;SHT30;59417;44.788;10.334;2023-09-18T06:46:03;23.55;75.61
28175;SHT30;59417;44.788;10.334;2023-09-18T06:48:29;23.51;75.27
28175;SHT30;59417;44.788;10.334;2023-09-18T06:50:58;23.46;75.57
28175;SHT30;59417;44.788;10.334;2023-09-18T06:53:26;23.44;75.69
28175;SHT30;59417;44.788;10.334;2023-09-18T06:55:53;23.49;75.75
28175;SHT30;59417;44.788;10.334;2023-09-18T06:58:19;23.50;76.00
28175;SHT30;59417;44.788;10.334;2023-09-18T07:00:45;23.54;75.98
28175;SHT30;59417;44.788;10.334;2023-09-18T07:03:10;23.55;75.95
28175;SHT30;59417;44.788;10.334;2023-09-18T07:05:37;23.64;75.88
28175;SHT30;59417;44.788;10.334;2023-09-18T07:08:03;23.70;75.86
28175;SHT30;59417;44.788;10.334;2023-09-18T07:10:31;23.75;75.43
28175;SHT30;59417;44.788;10.334;2023-09-18T07:12:58;23.78;75.18
28175;SHT30;59417;44.788;10.334;2023-09-18T07:15:24;23.84;75.14
28175;SHT30;59417;44.788;10.334;2023-09-18T07:17:49;23.81;75.30
28175;SHT30;59417;44.788;10.334;2023-09-18T07:20:15;23.82;75.36
28175;SHT30;59417;44.788;10.334;2023-09-18T07:22:46;23.84;75.31
28175;SHT30;59417;44.788;10.334;2023-09-18T07:25:13;23.78;75.55
28175;SHT30;59417;44.788;10.334;2023-09-18T07:27:39;23.74;75.59
28175;SHT30;59417;44.788;10.334;2023-09-18T07:30:13;23.78;75.42
28175;SHT30;59417;44.788;10.334;2023-09-18T07:32:43;23.81;75.20
28175;SHT30;59417;44.788;10.334;2023-09-18T07:35:09;23.80;75.46
28175;SHT30;59417;44.788;10.334;2023-09-18T07:37:36;23.74;75.63
28175;SHT30;59417;44.788;10.334;2023-09-18T07:40:06;23.71;75.75
28175;SHT30;59417;44.788;10.334;2023-09-18T07:42:32;23.75;75.79
28175;SHT30;59417;44.788;10.334;2023-09-18T07:44:58;23.80;75.71
28175;SHT30;59417;44.788;10.334;2023-09-18T07:47:24;23.78;75.41
28175;SHT30;59417;44.788;10.334;2023-09-18T07:49:50;23.85;75.39
28175;SHT30;59417;44.788;10.334;2023-09-18T07:52:17;23.91;75.63
28175;SHT30;59417;44.788;10.334;2023-09-18T07:54:43;24.01;75.37
28175;SHT30;59417;44.788;10.334;2023-09-18T07:57:09;24.14;74.93
28175;SHT30;59417;44.788;10.334;2023-09-18T07:59:36;24.22;74.59
28175;SHT30;59417;44.788;10.334;2023-09-18T08:02:02;24.22;74.54
28175;SHT30;59417;44.788;10.334;2023-09-18T08:04:31;24.29;75.08
28175;SHT30;59417;44.788;10.334;2023-09-18T08:06:57;24.42;74.62
28175;SHT30;59417;44.788;10.334;2023-09-18T08:09:22;24.62;74.19
28175;SHT30;59417;44.788;10.334;2023-09-18T08:11:48;24.67;74.02
28175;SHT30;59417;44.788;10.334;2023-09-18T08:14:15;24.70;73.93
28175;SHT30;59417;44.788;10.334;2023-09-18T08:16:42;24.79;73.59
28175;SHT30;59417;44.788;10.334;2023-09-18T08:19:08;24.76;73.75
28175;SHT30;59417;44.788;10.334;2023-09-18T08:21:34;24.75;74.04
28175;SHT30;59417;44.788;10.334;2023-09-18T08:24:00;24.77;73.89
28175;SHT30;59417;44.788;10.334;2023-09-18T08:26:26;24.80;73.96
28175;SHT30;59417;44.788;10.334;2023-09-18T08:28:52;24.80;73.31
28175;SHT30;59417;44.788;10.334;2023-09-18T08:31:18;24.70;73.96
28175;SHT30;59417;44.788;10.334;2023-09-18T08:33:44;24.65;74.21
28175;SHT30;59417;44.788;10.334;2023-09-18T08:36:09;24.73;73.96
28175;SHT30;59417;44.788;10.334;2023-09-18T08:38:35;24.77;74.02
28175;SHT30;59417;44.788;10.334;2023-09-18T08:41:01;24.80;73.94
28175;SHT30;59417;44.788;10.334;2023-09-18T08:43:29;24.83;73.84
28175;SHT30;59417;44.788;10.334;2023-09-18T08:45:55;24.86;73.36
28175;SHT30;59417;44.788;10.334;2023-09-18T08:48:27;24.83;73.52
28175;SHT30;59417;44.788;10.334;2023-09-18T08:51:04;24.80;73.86
28175;SHT30;59417;44.788;10.334;2023-09-18T08:53:32;24.84;74.04
28175;SHT30;59417;44.788;10.334;2023-09-18T08:55:59;24.82;74.13
28175;SHT30;59417;44.788;10.334;2023-09-18T08:58:34;24.83;73.99
28175;SHT30;59417;44.788;10.334;2023-09-18T09:01:03;24.83;73.99
28175;SHT30;59417;44.788;10.334;2023-09-18T09:03:31;24.88;74.02
28175;SHT30;59417;44.788;10.334;2023-09-18T09:05:59;24.87;73.41
28175;SHT30;59417;44.788;10.334;2023-09-18T09:08:29;24.84;73.66
28175;SHT30;59417;44.788;10.334;2023-09-18T09:10:55;24.77;73.87
28175;SHT30;59417;44.788;10.334;2023-09-18T09:13:23;24.76;73.66
28175;SHT30;59417;44.788;10.334;2023-09-18T09:15:53;24.76;73.91
28175;SHT30;59417;44.788;10.334;2023-09-18T09:18:21;24.77;74.28
28175;SHT30;59417;44.788;10.334;2023-09-18T09:20:55;24.77;74.02
28175;SHT30;59417;44.788;10.334;2023-09-18T09:23:23;24.82;74.13
28175;SHT30;59417;44.788;10.334;2023-09-18T09:25:49;24.77;74.14
28175;SHT30;59417;44.788;10.334;2023-09-18T09:28:15;24.70;74.27
28175;SHT30;59417;44.788;10.334;2023-09-18T09:30:42;24.79;73.82
28175;SHT30;59417;44.788;10.334;2023-09-18T09:33:11;24.80;73.95
28175;SHT30;59417;44.788;10.334;2023-09-18T09:35:38;24.83;74.02
28175;SHT30;59417;44.788;10.334;2023-09-18T09:38:11;24.83;74.24
28175;SHT30;59417;44.788;10.334;2023-09-18T09:40:41;24.86;73.88
28175;SHT30;59417;44.788;10.334;2023-09-18T09:43:08;24.94;73.56
28175;SHT30;59417;44.788;10.334;2023-09-18T09:45:34;24.91;73.68
28175;SHT30;59417;44.788;10.334;2023-09-18T09:48:02;24.90;73.90
28175;SHT30;59417;44.788;10.334;2023-09-18T09:50:30;25.02;73.91
28175;SHT30;59417;44.788;10.334;2023-09-18T09:52:57;25.08;73.84
28175;SHT30;59417;44.788;10.334;2023-09-18T09:57:58;25.02;74.42
28175;SHT30;59417;44.788;10.334;2023-09-18T10:03:16;24.91;74.83
28175;SHT30;59417;44.788;10.334;2023-09-18T10:05:46;24.94;75.03
28175;SHT30;59417;44.788;10.334;2023-09-18T10:08:14;24.93;74.90
28175;SHT30;59417;44.788;10.334;2023-09-18T10:10:52;24.91;74.98
28175;SHT30;59417;44.788;10.334;2023-09-18T10:13:22;24.91;75.14
28175;SHT30;59417;44.788;10.334;2023-09-18T10:15:50;24.80;75.45
28175;SHT30;59417;44.788;10.334;2023-09-18T10:18:31;24.80;75.79
28175;SHT30;59417;44.788;10.334;2023-09-18T10:21:42;24.94;75.41
28175;SHT30;59417;44.788;10.334;2023-09-18T10:24:24;25.10;75.31
28175;SHT30;59417;44.788;10.334;2023-09-18T10:27:00;25.23;75.00
28175;SHT30;59417;44.788;10.334;2023-09-18T10:29:29;25.26;74.75
28175;SHT30;59417;44.788;10.334;2023-09-18T10:31:55;25.23;74.60
28175;SHT30;59417;44.788;10.334;2023-09-18T10:34:23;25.21;74.71
28175;SHT30;59417;44.788;10.334;2023-09-18T10:36:51;25.14;75.19
28175;SHT30;59417;44.788;10.334;2023-09-18T10:39:18;25.16;75.33
28175;SHT30;59417;44.788;10.334;2023-09-18T10:41:54;25.08;75.51
28175;SHT30;59417;44.788;10.334;2023-09-18T10:44:23;25.21;75.46
28175;SHT30;59417;44.788;10.334;2023-09-18T10:46:51;25.23;75.65
28175;SHT30;59417;44.788;10.334;2023-09-18T10:49:21;25.30;75.75
28175;SHT30;59417;44.788;10.334;2023-09-18T10:51:48;25.37;75.79
28175;SHT30;59417;44.788;10.334;2023-09-18T10:54:20;25.53;75.37
28175;SHT30;59417;44.788;10.334;2023-09-18T10:56:47;25.58;75.23
28175;SHT30;59417;44.788;10.334;2023-09-18T10:59:14;25.65;74.51
28175;SHT30;59417;44.788;10.334;2023-09-18T11:01:41;25.61;74.77
28175;SHT30;59417;44.788;10.334;2023-09-18T11:04:08;25.59;74.99
28175;SHT30;59417;44.788;10.334;2023-09-18T11:09:28;25.62;74.66
28175;SHT30;59417;44.788;10.334;2023-09-18T11:12:09;25.67;74.90
28175;SHT30;59417;44.788;10.334;2023-09-18T11:14:58;25.69;74.71
28175;SHT30;59417;44.788;10.334;2023-09-18T11:17:38;25.77;74.13
28175;SHT30;59417;44.788;10.334;2023-09-18T11:20:09;25.90;73.92
28175;SHT30;59417;44.788;10.334;2023-09-18T11:22:39;26.13;73.26
28175;SHT30;59417;44.788;10.334;2023-09-18T11:27:56;26.33;72.00
28175;SHT30;59417;44.788;10.334;2023-09-18T11:30:22;26.37;71.84
28175;SHT30;59417;44.788;10.334;2023-09-18T11:32:51;26.37;71.69
28175;SHT30;59417;44.788;10.334;2023-09-18T11:35:18;26.44;71.54
28175;SHT30;59417;44.788;10.334;2023-09-18T11:37:45;26.41;71.77
28175;SHT30;59417;44.788;10.334;2023-09-18T11:40:43;26.35;71.43
28175;SHT30;59417;44.788;10.334;2023-09-18T11:45:51;26.23;72.01
28175;SHT30;59417;44.788;10.334;2023-09-18T11:48:19;26.19;72.05
28175;SHT30;59417;44.788;10.334;2023-09-18T11:50:46;26.19;72.24
28175;SHT30;59417;44.788;10.334;2023-09-18T11:53:14;26.08;71.45
28175;SHT30;59417;44.788;10.334;2023-09-18T11:55:40;26.03;72.23
28175;SHT30;59417;44.788;10.334;2023-09-18T11:58:06;26.02;70.60
28175;SHT30;59417;44.788;10.334;2023-09-18T12:00:35;26.03;71.28
28175;SHT30;59417;44.788;10.334;2023-09-18T12:03:33;26.12;68.31
28175;SHT30;59417;44.788;10.334;2023-09-18T12:06:01;26.32;65.21
28175;SHT30;59417;44.788;10.334;2023-09-18T12:08:32;26.46;64.16
28175;SHT30;59417;44.788;10.334;2023-09-18T12:10:58;26.43;64.96
28175;SHT30;59417;44.788;10.334;2023-09-18T12:13:25;26.76;61.67
28175;SHT30;59417;44.788;10.334;2023-09-18T12:16:02;26.86;61.27
28175;SHT30;59417;44.788;10.334;2023-09-18T12:18:32;26.76;62.60
28175;SHT30;59417;44.788;10.334;2023-09-18T12:21:01;26.74;62.39
28175;SHT30;59417;44.788;10.334;2023-09-18T12:23:37;26.77;62.00
28175;SHT30;59417;44.788;10.334;2023-09-18T12:26:03;26.94;59.97
28175;SHT30;59417;44.788;10.334;2023-09-18T12:28:35;26.97;60.56
28175;SHT30;59417;44.788;10.334;2023-09-18T12:31:02;27.10;60.47
28175;SHT30;59417;44.788;10.334;2023-09-18T12:33:35;26.98;61.47
28175;SHT30;59417;44.788;10.334;2023-09-18T12:36:03;26.90;62.45
28175;SHT30;59417;44.788;10.334;2023-09-18T12:38:31;26.91;63.33
28175;SHT30;59417;44.788;10.334;2023-09-18T12:40:57;26.92;62.49
28175;SHT30;59417;44.788;10.334;2023-09-18T12:43:39;27.05;61.25
28175;SHT30;59417;44.788;10.334;2023-09-18T12:46:06;27.29;56.86
28175;SHT30;59417;44.788;10.334;2023-09-18T12:48:36;27.58;55.50
28175;SHT30;59417;44.788;10.334;2023-09-18T12:51:03;27.67;54.86
28175;SHT30;59417;44.788;10.334;2023-09-18T12:53:29;27.80;54.64
28175;SHT30;59417;44.788;10.334;2023-09-18T12:56:04;27.73;54.79
28175;SHT30;59417;44.788;10.334;2023-09-18T12:58:31;27.85;55.80
28175;SHT30;59417;44.788;10.334;2023-09-18T13:00:57;27.75;58.64
28175;SHT30;59417;44.788;10.334;2023-09-18T13:03:22;27.58;59.86
28175;SHT30;59417;44.788;10.334;2023-09-18T13:05:49;27.52;61.28
28175;SHT30;59417;44.788;10.334;2023-09-18T13:08:23;27.76;56.81
28175;SHT30;59417;44.788;10.334;2023-09-18T13:10:49;27.77;56.21
28175;SHT30;59417;44.788;10.334;2023-09-18T13:13:22;27.94;54.15
28175;SHT30;59417;44.788;10.334;2023-09-18T13:15:51;27.96;53.89
28175;SHT30;59417;44.788;10.334;2023-09-18T13:18:16;28.16;53.49
28175;SHT30;59417;44.788;10.334;2023-09-18T13:20:43;28.31;53.50
28175;SHT30;59417;44.788;10.334;2023-09-18T13:23:09;28.34;53.30
28175;SHT30;59417;44.788;10.334;2023-09-18T13:25:38;28.48;52.54
28175;SHT30;59417;44.788;10.334;2023-09-18T13:28:07;28.58;52.54
28175;SHT30;59417;44.788;10.334;2023-09-18T13:30:35;28.60;52.49
28175;SHT30;59417;44.788;10.334;2023-09-18T13:33:06;28.60;52.65
28175;SHT30;59417;44.788;10.334;2023-09-18T13:35:33;28.58;52.42
28175;SHT30;59417;44.788;10.334;2023-09-18T13:37:59;28.60;51.77
28175;SHT30;59417;44.788;10.334;2023-09-18T13:40:25;28.52;52.04
28175;SHT30;59417;44.788;10.334;2023-09-18T13:42:51;28.55;51.44
28175;SHT30;59417;44.788;10.334;2023-09-18T13:45:16;28.55;51.98
28175;SHT30;59417;44.788;10.334;2023-09-18T13:47:43;28.63;51.97
28175;SHT30;59417;44.788;10.334;2023-09-18T13:50:09;28.79;51.91
28175;SHT30;59417;44.788;10.334;2023-09-18T13:52:36;28.94;51.71
28175;SHT30;59417;44.788;10.334;2023-09-18T13:55:04;28.94;52.37
28175;SHT30;59417;44.788;10.334;2023-09-18T13:57:34;28.98;51.79
28175;SHT30;59417;44.788;10.334;2023-09-18T14:00:02;28.98;51.86
28175;SHT30;59417;44.788;10.334;2023-09-18T14:02:41;28.94;51.47
28175;SHT30;59417;44.788;10.334;2023-09-18T14:05:08;28.98;51.98
28175;SHT30;59417;44.788;10.334;2023-09-18T14:07:35;29.16;51.51
28175;SHT30;59417;44.788;10.334;2023-09-18T14:10:00;29.20;51.66
28175;SHT30;59417;44.788;10.334;2023-09-18T14:12:30;29.18;51.45
28175;SHT30;59417;44.788;10.334;2023-09-18T14:14:56;29.19;51.60
28175;SHT30;59417;44.788;10.334;2023-09-18T14:17:22;29.12;52.14
28175;SHT30;59417;44.788;10.334;2023-09-18T14:19:48;29.15;51.17
28175;SHT30;59417;44.788;10.334;2023-09-18T14:22:14;29.09;51.60
28175;SHT30;59417;44.788;10.334;2023-09-18T14:24:40;29.15;50.55
28175;SHT30;59417;44.788;10.334;2023-09-18T14:27:06;29.08;51.24
28175;SHT30;59417;44.788;10.334;2023-09-18T14:29:33;28.92;51.03
28175;SHT30;59417;44.788;10.334;2023-09-18T14:32:02;28.92;50.06
28175;SHT30;59417;44.788;10.334;2023-09-18T14:34:30;28.91;49.62
28175;SHT30;59417;44.788;10.334;2023-09-18T14:36:56;28.87;49.73
28175;SHT30;59417;44.788;10.334;2023-09-18T14:39:22;28.82;49.80
28175;SHT30;59417;44.788;10.334;2023-09-18T14:41:48;28.71;50.28
28175;SHT30;59417;44.788;10.334;2023-09-18T14:44:15;28.75;49.71
28175;SHT30;59417;44.788;10.334;2023-09-18T14:46:40;28.74;49.86
28175;SHT30;59417;44.788;10.334;2023-09-18T14:49:07;28.71;49.37
28175;SHT30;59417;44.788;10.334;2023-09-18T14:51:34;28.65;49.84
28175;SHT30;59417;44.788;10.334;2023-09-18T14:54:00;28.52;50.64
28175;SHT30;59417;44.788;10.334;2023-09-18T14:56:26;28.44;50.95
28175;SHT30;59417;44.788;10.334;2023-09-18T14:58:53;28.34;51.33
28175;SHT30;59417;44.788;10.334;2023-09-18T15:01:21;28.24;51.49
28175;SHT30;59417;44.788;10.334;2023-09-18T15:03:47;28.23;51.59
28175;SHT30;59417;44.788;10.334;2023-09-18T15:06:14;28.13;51.60
28175;SHT30;59417;44.788;10.334;2023-09-18T15:08:40;28.12;51.76
28175;SHT30;59417;44.788;10.334;2023-09-18T15:11:06;28.00;51.92
28175;SHT30;59417;44.788;10.334;2023-09-18T15:13:32;27.96;52.22
28175;SHT30;59417;44.788;10.334;2023-09-18T15:16:01;27.93;52.46
28175;SHT30;59417;44.788;10.334;2023-09-18T15:18:27;27.89;52.79
28175;SHT30;59417;44.788;10.334;2023-09-18T15:20:52;27.89;52.81
28175;SHT30;59417;44.788;10.334;2023-09-18T15:23:24;27.90;53.14
28175;SHT30;59417;44.788;10.334;2023-09-18T15:25:50;27.85;53.33
28175;SHT30;59417;44.788;10.334;2023-09-18T15:28:20;27.86;53.45
28175;SHT30;59417;44.788;10.334;2023-09-18T15:30:46;27.80;54.10
28175;SHT30;59417;44.788;10.334;2023-09-18T15:33:13;27.83;53.67